createdAt,value
2022-09-15T00:00:23.009Z,4.50
2022-09-15T00:03:29.090Z,3.50
2022-09-15T00:06:15.765Z,3.47
2022-09-15T00:09:02.718Z,3.95
2022-09-15T00:11:48.419Z,4.03
2022-09-15T00:14:34.746Z,4.28
2022-09-15T00:17:21.431Z,3.42
2022-09-15T00:20:08.009Z,3.42
2022-09-15T00:22:53.837Z,3.55
2022-09-15T00:25:48.426Z,4.22
2022-09-15T00:28:34.285Z,3.65
2022-09-15T00:31:22.351Z,3.33
2022-09-15T00:34:08.090Z,3.55
2022-09-15T00:36:54.855Z,3.70
2022-09-15T00:39:40.793Z,3.90
2022-09-15T00:42:26.758Z,3.40
2022-09-15T00:45:16.416Z,3.83
2022-09-15T00:48:02.938Z,3.70
2022-09-15T00:50:52.126Z,3.50
2022-09-15T00:53:38.067Z,3.38
2022-09-15T00:56:24.816Z,3.78
2022-09-15T00:59:16.866Z,3.47
2022-09-15T01:02:11.027Z,3.80
2022-09-15T01:04:59.051Z,3.35
2022-09-15T01:07:52.287Z,3.53
2022-09-15T01:10:40.072Z,3.50
2022-09-15T01:13:26.815Z,3.88
2022-09-15T01:20:11.009Z,3.60
2022-09-15T01:23:20.805Z,3.85
2022-09-15T01:26:25.562Z,3.55
2022-09-15T01:29:48.538Z,3.67
2022-09-15T01:33:05.481Z,3.30
2022-09-15T01:36:01.772Z,3.70
2022-09-15T01:39:01.048Z,3.53
2022-09-15T01:41:55.106Z,3.63
2022-09-15T01:44:44.847Z,3.28
2022-09-15T01:47:30.933Z,3.17
2022-09-15T01:50:21.743Z,3.28
2022-09-15T01:53:12.713Z,3.95
2022-09-15T01:58:49.733Z,3.22
2022-09-15T02:01:44.759Z,3.10
2022-09-15T02:04:36.793Z,4.10
2022-09-15T02:07:40.196Z,3.35
2022-09-15T02:10:30.940Z,3.22
2022-09-15T02:13:25.498Z,3.47
2022-09-15T02:16:20.031Z,4.13
2022-09-15T02:19:11.968Z,3.60
2022-09-15T02:22:07.758Z,3.50
2022-09-15T02:25:03.184Z,4.07
2022-09-15T02:27:52.450Z,3.42
2022-09-15T02:30:41.252Z,3.55
2022-09-15T02:33:33.665Z,4.15
2022-09-15T02:36:20.622Z,4.18
2022-09-15T02:39:08.763Z,3.65
2022-09-15T02:41:54.729Z,3.70
2022-09-15T02:44:42.630Z,3.75
2022-09-15T02:47:29.101Z,3.55
2022-09-15T02:50:17.478Z,4.00
2022-09-15T02:53:03.559Z,3.72
2022-09-15T02:55:53.747Z,3.45
2022-09-15T02:58:45.572Z,4.18
2022-09-15T03:01:34.789Z,4.15
2022-09-15T03:04:24.468Z,3.50
2022-09-15T03:07:10.561Z,3.30
2022-09-15T03:09:56.354Z,3.35
2022-09-15T03:12:44.737Z,3.45
2022-09-15T03:15:30.570Z,3.33
2022-09-15T03:18:16.521Z,3.75
2022-09-15T03:21:02.464Z,4.18
2022-09-15T03:23:48.809Z,3.17
2022-09-15T03:26:34.269Z,3.88
2022-09-15T03:29:20.357Z,4.57
2022-09-15T03:32:06.176Z,3.53
2022-09-15T03:34:56.393Z,3.80
2022-09-15T03:37:44.612Z,3.60
2022-09-15T03:40:30.790Z,3.55
2022-09-15T03:43:18.700Z,3.85
2022-09-15T03:46:06.556Z,3.20
2022-09-15T03:48:52.302Z,3.30
2022-09-15T03:51:38.467Z,3.55
2022-09-15T03:54:23.927Z,3.40
2022-09-15T03:57:09.839Z,3.70
2022-09-15T03:59:55.578Z,3.03
2022-09-15T04:02:41.232Z,3.08
2022-09-15T04:05:26.674Z,4.05
2022-09-15T04:08:13.869Z,3.13
2022-09-15T04:11:00.530Z,3.45
2022-09-15T04:13:47.028Z,3.70
2022-09-15T04:16:32.840Z,3.40
2022-09-15T04:19:18.776Z,2.83
2022-09-15T04:22:04.153Z,3.45
2022-09-15T04:24:50.477Z,3.05
2022-09-15T04:27:36.476Z,3.70
2022-09-15T04:30:22.215Z,3.30
2022-09-15T04:33:08.504Z,2.80
2022-09-15T04:36:11.658Z,3.03
2022-09-15T04:38:58.168Z,3.17
2022-09-15T04:41:44.775Z,3.25
2022-09-15T04:44:31.105Z,3.38
2022-09-15T04:47:18.625Z,3.30
2022-09-15T04:50:04.486Z,3.35
2022-09-15T04:52:50.711Z,3.38
2022-09-15T04:55:36.899Z,4.20
2022-09-15T04:58:24.665Z,3.15
2022-09-15T05:01:14.022Z,3.03
2022-09-15T05:04:04.120Z,3.30
2022-09-15T05:06:50.064Z,3.22
2022-09-15T05:09:36.433Z,3.15
2022-09-15T05:12:22.399Z,3.08
2022-09-15T05:15:09.714Z,3.00
2022-09-15T05:17:55.781Z,3.00
2022-09-15T05:20:44.913Z,2.90
2022-09-15T05:23:32.027Z,3.60
2022-09-15T05:26:20.929Z,3.42
2022-09-15T05:29:06.467Z,3.30
2022-09-15T05:31:55.773Z,3.63
2022-09-15T05:34:42.036Z,2.92
2022-09-15T05:37:28.468Z,3.08
2022-09-15T05:40:18.435Z,2.88
2022-09-15T05:43:05.985Z,2.90
2022-09-15T05:45:55.437Z,2.92
2022-09-15T05:48:42.497Z,2.93
2022-09-15T05:51:27.932Z,2.85
2022-09-15T05:54:14.726Z,3.25
2022-09-15T05:57:00.603Z,2.95
2022-09-15T05:59:47.043Z,3.90
2022-09-15T06:02:36.375Z,3.60
2022-09-15T06:05:25.461Z,2.88
2022-09-15T06:08:10.982Z,3.58
2022-09-15T06:11:08.409Z,3.28
2022-09-15T06:13:55.525Z,3.20
2022-09-15T06:16:46.801Z,3.13
2022-09-15T06:19:35.835Z,2.85
2022-09-15T06:22:31.968Z,3.28
2022-09-15T06:25:20.463Z,3.55
2022-09-15T06:28:06.834Z,3.20
2022-09-15T06:30:52.449Z,3.10
2022-09-15T06:33:42.469Z,3.00
2022-09-15T06:36:29.589Z,2.97
2022-09-15T06:39:19.573Z,2.72
2022-09-15T06:42:05.966Z,3.00
2022-09-15T06:44:53.956Z,3.17
2022-09-15T06:47:40.262Z,2.70
2022-09-15T06:50:26.754Z,3.00
2022-09-15T06:53:12.485Z,2.17
2022-09-15T06:56:09.422Z,2.88
2022-09-15T06:58:56.437Z,2.35
2022-09-15T07:01:46.785Z,3.75
2022-09-15T07:04:37.158Z,2.45
2022-09-15T07:07:23.274Z,2.55
2022-09-15T07:10:09.256Z,2.55
2022-09-15T07:12:55.571Z,2.60
2022-09-15T07:16:03.527Z,2.17
2022-09-15T07:18:49.884Z,2.40
2022-09-15T07:21:35.751Z,2.60
2022-09-15T07:24:22.199Z,2.20
2022-09-15T07:27:08.851Z,1.77
2022-09-15T07:29:54.842Z,2.47
2022-09-15T07:32:40.866Z,2.60
2022-09-15T07:35:26.658Z,2.40
2022-09-15T07:38:13.155Z,1.98
2022-09-15T07:41:04.274Z,1.80
2022-09-15T07:43:54.467Z,2.00
2022-09-15T07:46:40.249Z,1.83
2022-09-15T07:49:26.238Z,1.33
2022-09-15T07:52:12.845Z,1.45
2022-09-15T07:54:58.546Z,1.60
2022-09-15T07:57:44.480Z,1.50
2022-09-15T08:00:30.267Z,1.27
2022-09-15T08:03:16.340Z,1.25
2022-09-15T08:06:03.537Z,1.00
2022-09-15T08:08:53.971Z,1.45
2022-09-15T08:11:42.177Z,1.20
2022-09-15T08:14:28.193Z,1.40
2022-09-15T08:17:14.276Z,1.20
2022-09-15T08:20:00.229Z,1.25
2022-09-15T08:22:46.081Z,1.30
2022-09-15T08:25:32.247Z,0.90
2022-09-15T08:28:17.970Z,1.00
2022-09-15T08:31:06.895Z,1.25
2022-09-15T08:33:54.481Z,1.83
2022-09-15T08:36:41.315Z,1.25
2022-09-15T08:39:27.540Z,1.05
2022-09-15T08:42:19.748Z,1.67
2022-09-15T08:45:24.833Z,1.05
2022-09-15T08:48:13.994Z,1.20
2022-09-15T08:51:02.096Z,1.10
2022-09-15T08:53:53.156Z,1.42
2022-09-15T08:56:41.303Z,1.08
2022-09-15T08:59:33.226Z,0.82
2022-09-15T09:02:37.424Z,1.30
2022-09-15T09:05:46.898Z,1.15
2022-09-15T09:09:01.332Z,1.00
2022-09-15T09:11:56.965Z,1.00
2022-09-15T09:15:12.013Z,1.00
2022-09-15T09:18:04.038Z,1.40
2022-09-15T09:20:58.661Z,1.00
2022-09-15T09:24:22.867Z,1.30
2022-09-15T09:27:13.454Z,0.80
2022-09-15T09:30:12.415Z,1.05
2022-09-15T09:33:06.012Z,1.00
2022-09-15T09:35:53.309Z,1.10
2022-09-15T09:38:40.854Z,1.15
2022-09-15T09:41:28.585Z,1.38
2022-09-15T09:44:16.146Z,1.00
2022-09-15T09:47:02.319Z,1.30
2022-09-15T09:49:48.998Z,1.20
2022-09-15T09:52:39.090Z,0.88
2022-09-15T09:55:27.346Z,0.95
2022-09-15T09:58:19.114Z,1.35
2022-09-15T10:01:14.125Z,1.88
2022-09-15T10:04:19.463Z,1.00
2022-09-15T10:07:06.169Z,0.98
2022-09-15T10:09:55.402Z,1.02
2022-09-15T10:12:42.136Z,1.20
2022-09-15T10:15:32.406Z,1.00
2022-09-15T10:18:30.969Z,0.93
2022-09-15T10:21:23.143Z,1.00
2022-09-15T10:24:27.471Z,1.00
2022-09-15T10:27:34.192Z,1.00
2022-09-15T10:30:20.301Z,1.05
2022-09-15T10:33:24.342Z,1.13
2022-09-15T10:36:19.472Z,1.17
2022-09-15T10:39:30.390Z,2.00
2022-09-15T10:42:28.124Z,1.10
2022-09-15T10:45:25.199Z,0.90
2022-09-15T10:48:45.127Z,1.13
2022-09-15T10:51:53.816Z,1.02
2022-09-15T10:54:57.177Z,0.98
2022-09-15T10:57:53.188Z,0.90
2022-09-15T11:00:47.849Z,1.13
2022-09-15T11:03:58.801Z,0.90
2022-09-15T11:07:14.401Z,1.40
2022-09-15T11:10:26.242Z,1.00
2022-09-15T11:13:29.338Z,1.20
2022-09-15T11:16:41.270Z,1.00
2022-09-15T11:19:45.862Z,1.10
2022-09-15T11:23:11.985Z,1.13
2022-09-15T11:26:04.818Z,0.90
2022-09-15T11:28:56.073Z,1.15
2022-09-15T11:31:43.369Z,1.00
2022-09-15T11:34:35.067Z,1.40
2022-09-15T11:37:24.308Z,1.33
2022-09-15T11:40:17.861Z,1.60
2022-09-15T11:43:11.938Z,1.58
2022-09-15T11:45:59.315Z,1.20
2022-09-15T11:48:50.349Z,0.98
2022-09-15T11:51:42.960Z,1.05
2022-09-15T11:55:11.878Z,0.98
2022-09-15T11:58:26.240Z,1.10
2022-09-15T12:01:12.064Z,1.35
2022-09-15T12:04:02.629Z,1.20
2022-09-15T12:07:05.149Z,1.40
2022-09-15T12:09:51.652Z,1.20
2022-09-15T12:12:38.840Z,1.27
2022-09-15T12:15:27.469Z,1.33
2022-09-15T12:18:37.789Z,1.10
2022-09-15T12:21:51.996Z,1.70
2022-09-15T12:24:46.010Z,1.48
2022-09-15T12:27:32.507Z,1.25
2022-09-15T12:30:38.519Z,1.20
2022-09-15T12:33:54.829Z,1.20
2022-09-15T12:36:47.214Z,1.23
2022-09-15T12:39:41.144Z,1.17
2022-09-15T12:42:31.660Z,1.35
2022-09-15T12:45:27.168Z,0.90
2022-09-15T12:48:15.945Z,0.98
2022-09-15T12:51:04.361Z,0.90
2022-09-15T12:54:04.800Z,1.20
2022-09-15T12:56:55.015Z,0.90
2022-09-15T12:59:41.359Z,0.80
2022-09-15T13:02:47.722Z,1.00
2022-09-15T13:05:42.687Z,0.90
2022-09-15T13:08:28.752Z,0.75
2022-09-15T13:11:27.008Z,1.13
2022-09-15T13:14:14.829Z,0.90
2022-09-15T13:17:17.086Z,0.93
2022-09-15T13:20:10.221Z,1.10
2022-09-15T13:22:56.505Z,1.63
2022-09-15T13:25:44.896Z,0.70
2022-09-15T13:28:31.735Z,0.70
2022-09-15T13:31:30.929Z,0.80
2022-09-15T13:41:10.072Z,0.88
2022-09-15T13:44:15.579Z,0.70
2022-09-15T13:47:22.890Z,0.50
2022-09-15T13:50:18.334Z,0.70
2022-09-15T13:53:36.315Z,0.80
2022-09-15T13:56:35.697Z,0.70
2022-09-15T13:59:24.929Z,0.63
2022-09-15T14:02:12.891Z,1.42
2022-09-15T14:04:58.907Z,0.95
2022-09-15T14:07:52.668Z,0.63
2022-09-15T14:10:52.817Z,0.85
2022-09-15T14:13:43.707Z,0.50
2022-09-15T14:16:35.686Z,0.65
2022-09-15T14:19:33.942Z,0.82
2022-09-15T14:22:32.844Z,0.77
2022-09-15T14:25:19.474Z,0.75
2022-09-15T14:28:05.967Z,0.70
2022-09-15T14:30:51.747Z,0.80
2022-09-15T14:33:39.780Z,0.70
2022-09-15T14:36:29.139Z,0.80
2022-09-15T14:39:21.485Z,0.77
2022-09-15T14:42:23.625Z,0.80
2022-09-15T14:48:27.997Z,0.70
2022-09-15T14:51:20.856Z,1.50
2022-09-15T14:54:28.446Z,0.75
2022-09-15T14:57:15.077Z,1.15
2022-09-15T15:00:05.653Z,1.00
2022-09-15T15:03:18.351Z,0.80
2022-09-15T15:06:28.867Z,0.82
2022-09-15T15:09:38.933Z,0.98
2022-09-15T15:12:35.010Z,0.80
2022-09-15T15:15:21.569Z,0.95
2022-09-15T15:18:32.049Z,0.70
2022-09-15T15:21:38.226Z,0.80
2022-09-15T15:24:24.498Z,0.80
2022-09-15T15:27:35.600Z,0.85
2022-09-15T15:30:43.565Z,0.70
2022-09-15T15:33:29.266Z,0.93
2022-09-15T15:36:15.696Z,0.88
2022-09-15T15:39:04.789Z,1.20
2022-09-15T15:42:06.111Z,0.90
2022-09-15T15:45:00.348Z,0.80
2022-09-15T15:47:46.275Z,0.80
2022-09-15T15:50:34.583Z,0.85
2022-09-15T15:53:20.829Z,1.40
2022-09-15T15:56:08.207Z,0.90
2022-09-15T15:58:54.219Z,1.25
2022-09-15T16:01:40.305Z,1.67
2022-09-15T16:04:26.891Z,1.00
2022-09-15T16:07:17.550Z,1.15
2022-09-15T16:10:04.767Z,0.80
2022-09-15T16:12:50.769Z,1.10
2022-09-15T16:15:37.381Z,0.98
2022-09-15T16:18:23.538Z,0.82
2022-09-15T16:21:18.811Z,1.00
2022-09-15T16:24:05.597Z,0.70
2022-09-15T16:26:53.918Z,0.98
2022-09-15T16:29:39.745Z,0.73
2022-09-15T16:32:26.176Z,0.95
2022-09-15T16:35:22.557Z,0.95
2022-09-15T16:38:09.253Z,0.77
2022-09-15T16:40:55.165Z,0.95
2022-09-15T16:43:41.174Z,0.95
2022-09-15T16:46:26.953Z,0.93
2022-09-15T16:49:13.237Z,1.00
2022-09-15T16:51:59.321Z,1.75
2022-09-15T16:54:50.585Z,1.83
2022-09-15T16:57:51.156Z,1.73
2022-09-15T17:00:42.579Z,2.20
2022-09-15T17:03:29.423Z,2.53
2022-09-15T17:06:17.803Z,2.80
2022-09-15T17:09:05.360Z,1.73
2022-09-15T17:12:00.061Z,1.83
2022-09-15T17:14:51.811Z,1.67
2022-09-15T17:17:40.106Z,1.40
2022-09-15T17:20:26.369Z,1.52
2022-09-15T17:23:28.052Z,1.45
2022-09-15T17:26:19.972Z,1.48
2022-09-15T17:29:05.751Z,1.63
2022-09-15T17:31:51.552Z,1.40
2022-09-15T17:34:37.909Z,1.60
2022-09-15T17:37:24.138Z,1.75
2022-09-15T17:40:10.949Z,1.92
2022-09-15T17:42:56.914Z,2.05
2022-09-15T17:45:43.875Z,2.05
2022-09-15T17:48:44.277Z,2.05
2022-09-15T17:51:36.441Z,2.50
2022-09-15T17:54:23.587Z,3.38
2022-09-15T17:57:09.757Z,3.20
2022-09-15T17:59:55.953Z,3.60
2022-09-15T18:02:43.570Z,4.53
2022-09-15T18:05:32.475Z,3.35
2022-09-15T18:08:18.589Z,3.50
2022-09-15T18:11:05.835Z,3.47
2022-09-15T18:13:52.464Z,2.55
2022-09-15T18:16:38.639Z,2.38
2022-09-15T18:19:25.202Z,2.60
2022-09-15T18:22:11.429Z,2.67
2022-09-15T18:24:57.454Z,2.72
2022-09-15T18:27:43.408Z,2.95
2022-09-15T18:30:36.508Z,3.13
2022-09-15T18:33:24.391Z,2.70
2022-09-15T18:36:10.828Z,2.58
2022-09-15T18:38:56.406Z,2.53
2022-09-15T18:41:42.775Z,2.95
2022-09-15T18:44:28.859Z,2.38
2022-09-15T18:47:16.099Z,2.58
2022-09-15T18:53:15.739Z,2.60
2022-09-15T18:56:02.218Z,2.45
2022-09-15T18:58:48.289Z,1.80
2022-09-15T19:01:34.798Z,2.00
2022-09-15T19:04:21.489Z,1.80
2022-09-15T19:07:08.223Z,1.58
2022-09-15T19:09:56.646Z,1.90
2022-09-15T19:12:43.471Z,2.00
2022-09-15T19:15:31.287Z,2.08
2022-09-15T19:18:18.780Z,2.20
2022-09-15T19:21:07.289Z,1.90
2022-09-15T19:23:56.265Z,1.58
2022-09-15T19:26:43.658Z,2.22
2022-09-15T19:29:34.565Z,1.85
2022-09-15T19:32:21.289Z,1.80
2022-09-15T19:35:08.208Z,1.75
2022-09-15T19:37:54.261Z,1.70
2022-09-15T19:40:39.794Z,2.00
2022-09-15T19:43:28.415Z,1.75
2022-09-15T19:46:23.089Z,1.60
2022-09-15T19:49:10.212Z,1.50
2022-09-15T19:51:56.188Z,1.40
2022-09-15T19:54:42.733Z,1.80
2022-09-15T19:57:28.728Z,1.50
2022-09-15T20:00:14.720Z,1.45
2022-09-15T20:03:09.915Z,2.10
2022-09-15T20:06:13.072Z,1.90
2022-09-15T20:09:00.717Z,1.75
2022-09-15T20:11:54.823Z,1.67
2022-09-15T20:14:42.906Z,1.45
2022-09-15T20:17:29.249Z,1.45
2022-09-15T20:20:15.744Z,1.60
2022-09-15T20:23:02.435Z,1.35
2022-09-15T20:25:57.441Z,1.45
2022-09-15T20:28:52.947Z,1.30
2022-09-15T20:34:57.227Z,1.85
2022-09-15T20:37:43.149Z,1.30
2022-09-15T20:40:28.964Z,1.50
2022-09-15T20:43:14.175Z,1.48
2022-09-15T20:46:01.920Z,1.48
2022-09-15T20:48:48.498Z,1.50
2022-09-15T20:51:34.739Z,1.20
2022-09-15T20:54:21.165Z,1.33
2022-09-15T20:57:07.268Z,1.30
2022-09-15T20:59:52.858Z,1.98
2022-09-15T21:02:39.309Z,1.40
2022-09-15T21:05:25.376Z,1.73
2022-09-15T21:08:13.041Z,1.40
2022-09-15T21:10:59.432Z,1.40
2022-09-15T21:13:46.137Z,1.60
2022-09-15T21:16:33.967Z,1.27
2022-09-15T21:19:19.852Z,1.33
2022-09-15T21:22:05.421Z,1.40
2022-09-15T21:24:52.209Z,1.35
2022-09-15T21:27:37.943Z,1.13
2022-09-15T21:30:24.170Z,1.33
2022-09-15T21:33:10.104Z,1.20
2022-09-15T21:36:14.965Z,1.20
2022-09-15T21:39:02.790Z,1.52
2022-09-15T21:41:48.489Z,1.10
2022-09-15T21:44:33.895Z,1.05
2022-09-15T21:47:19.552Z,0.90
2022-09-15T21:50:05.965Z,1.10
2022-09-15T21:52:52.694Z,1.13
2022-09-15T21:55:44.891Z,1.00
2022-09-15T21:59:13.434Z,0.95
2022-09-15T22:01:59.255Z,1.08
2022-09-15T22:04:46.066Z,1.15
2022-09-15T22:07:32.064Z,0.93
2022-09-15T22:10:18.626Z,1.30
2022-09-15T22:13:05.735Z,1.00
2022-09-15T22:15:51.829Z,1.00
2022-09-15T22:18:38.630Z,1.00
2022-09-15T22:21:27.395Z,1.00
2022-09-15T22:24:13.516Z,0.90
2022-09-15T22:26:59.909Z,1.00
2022-09-15T22:29:45.406Z,1.00
2022-09-15T22:32:31.465Z,0.93
2022-09-15T22:35:17.444Z,1.10
2022-09-15T22:38:03.681Z,0.70
2022-09-15T22:40:49.148Z,1.40
2022-09-15T22:43:35.864Z,1.30
2022-09-15T22:46:21.388Z,1.00
2022-09-15T22:49:07.493Z,0.90
2022-09-15T22:51:53.891Z,0.98
2022-09-15T22:54:40.889Z,1.05
2022-09-15T22:57:27.017Z,0.90
2022-09-15T23:00:13.551Z,1.13
2022-09-15T23:02:59.833Z,0.98
2022-09-15T23:05:45.811Z,1.27
2022-09-15T23:08:32.696Z,1.20
2022-09-15T23:11:19.680Z,0.90
2022-09-15T23:14:07.799Z,1.00
2022-09-15T23:16:54.384Z,1.17
2022-09-15T23:19:40.280Z,1.38
2022-09-15T23:22:26.830Z,1.35
2022-09-15T23:25:12.739Z,1.45
2022-09-15T23:27:58.780Z,1.27
2022-09-15T23:30:44.631Z,1.63
2022-09-15T23:33:31.638Z,1.30
2022-09-15T23:36:21.891Z,1.65
2022-09-15T23:39:08.070Z,1.40
2022-09-15T23:41:53.859Z,1.23
2022-09-15T23:44:39.806Z,1.20
2022-09-15T23:47:25.381Z,1.20
2022-09-15T23:50:11.340Z,0.90
2022-09-15T23:52:57.816Z,1.35
2022-09-15T23:55:44.126Z,1.00
2022-09-15T23:58:29.729Z,1.02
